sensor_id;sensor_type;location;lat;lon;timestamp;pressure;altitude;pressure_sealevel;temperature;humidity
21290;BME280;10804;48.988;2.408;2023-03-22T00:02:03;100512.78;;;14.12;64.39
21290;BME280;10804;48.988;2.408;2023-03-22T00:04:49;100514.50;;;14.13;64.54
21290;BME280;10804;48.988;2.408;2023-03-22T00:07:34;100508.44;;;14.11;64.26
21290;BME280;10804;48.988;2.408;2023-03-22T00:10:20;100510.28;;;14.09;64.34
21290;BME280;10804;48.988;2.408;2023-03-22T00:13:08;100506.13;;;14.05;64.63
21290;BME280;10804;48.988;2.408;2023-03-22T00:15:56;100503.50;;;14.05;64.68
21290;BME280;10804;48.988;2.408;2023-03-22T00:18:43;100497.44;;;14.03;64.53
21290;BME280;10804;48.988;2.408;2023-03-22T00:21:29;100492.19;;;14.03;64.62
21290;BME280;10804;48.988;2.408;2023-03-22T00:24:15;100492.19;;;14.03;64.62
21290;BME280;10804;48.988;2.408;2023-03-22T00:27:01;100485.25;;;14.02;64.53
21290;BME280;10804;48.988;2.408;2023-03-22T00:29:47;100477.38;;;14.02;64.73
21290;BME280;10804;48.988;2.408;2023-03-22T00:32:37;100472.41;;;13.96;64.64
21290;BME280;10804;48.988;2.408;2023-03-22T00:35:23;100475.75;;;14.00;64.47
21290;BME280;10804;48.988;2.408;2023-03-22T00:38:10;100472.34;;;13.98;64.57
21290;BME280;10804;48.988;2.408;2023-03-22T00:41:04;100472.34;;;13.98;64.75
21290;BME280;10804;48.988;2.408;2023-03-22T00:43:50;100470.63;;;13.97;64.66
21290;BME280;10804;48.988;2.408;2023-03-22T00:46:36;100459.50;;;13.92;64.59
21290;BME280;10804;48.988;2.408;2023-03-22T00:49:25;100463.81;;;13.93;64.46
21290;BME280;10804;48.988;2.408;2023-03-22T00:52:11;100462.13;;;13.92;64.65
21290;BME280;10804;48.988;2.408;2023-03-22T00:54:57;100456.03;;;13.91;64.56
21290;BME280;10804;48.988;2.408;2023-03-22T00:57:44;100457.00;;;13.89;64.57
21290;BME280;10804;48.988;2.408;2023-03-22T01:00:29;100437.03;;;13.86;64.53
21290;BME280;10804;48.988;2.408;2023-03-22T01:03:17;100439.59;;;13.88;64.62
21290;BME280;10804;48.988;2.408;2023-03-22T01:06:07;100437.03;;;13.86;64.46
21290;BME280;10804;48.988;2.408;2023-03-22T01:08:53;100438.00;;;13.84;64.88
21290;BME280;10804;48.988;2.408;2023-03-22T01:11:41;100438.88;;;13.84;64.58
21290;BME280;10804;48.988;2.408;2023-03-22T01:14:27;100440.72;;;13.82;64.49
21290;BME280;10804;48.988;2.408;2023-03-22T01:17:15;100438.16;;;13.81;64.52
21290;BME280;10804;48.988;2.408;2023-03-22T01:20:01;100434.75;;;13.79;64.81
21290;BME280;10804;48.988;2.408;2023-03-22T01:22:51;100433.88;;;13.78;64.39
21290;BME280;10804;48.988;2.408;2023-03-22T01:25:38;100413.91;;;13.76;64.76
21290;BME280;10804;48.988;2.408;2023-03-22T01:28:23;100408.75;;;13.74;64.77
21290;BME280;10804;48.988;2.408;2023-03-22T01:31:10;100410.50;;;13.74;64.82
21290;BME280;10804;48.988;2.408;2023-03-22T01:33:56;100398.44;;;13.70;64.67
21290;BME280;10804;48.988;2.408;2023-03-22T01:36:42;100401.00;;;13.71;64.59
21290;BME280;10804;48.988;2.408;2023-03-22T01:39:29;100398.44;;;13.70;64.80
21290;BME280;10804;48.988;2.408;2023-03-22T01:42:19;100390.56;;;13.70;64.54
21290;BME280;10804;48.988;2.408;2023-03-22T01:45:33;100389.00;;;13.66;64.56
21290;BME280;10804;48.988;2.408;2023-03-22T01:48:24;100385.41;;;13.68;64.50
21290;BME280;10804;48.988;2.408;2023-03-22T01:51:13;100379.41;;;13.66;64.51
21290;BME280;10804;48.988;2.408;2023-03-22T01:54:20;100371.53;;;13.66;64.68
21290;BME280;10804;48.988;2.408;2023-03-22T01:57:11;100350.13;;;13.57;64.78
21290;BME280;10804;48.988;2.408;2023-03-22T01:59:59;100352.78;;;13.55;64.91
21290;BME280;10804;48.988;2.408;2023-03-22T02:03:21;100363.94;;;13.60;64.91
21290;BME280;10804;48.988;2.408;2023-03-22T02:06:09;100350.03;;;13.58;64.91
21290;BME280;10804;48.988;2.408;2023-03-22T02:08:55;100349.13;;;13.59;64.57
21290;BME280;10804;48.988;2.408;2023-03-22T02:11:48;100326.59;;;13.55;64.72
21290;BME280;10804;48.988;2.408;2023-03-22T02:14:58;100329.22;;;13.55;64.83
21290;BME280;10804;48.988;2.408;2023-03-22T02:18:24;100330.13;;;13.54;64.82
21290;BME280;10804;48.988;2.408;2023-03-22T02:21:51;100317.34;;;13.47;64.70
21290;BME280;10804;48.988;2.408;2023-03-22T02:25:17;100321.56;;;13.51;64.84
21290;BME280;10804;48.988;2.408;2023-03-22T02:28:24;100326.03;;;13.49;64.84
21290;BME280;10804;48.988;2.408;2023-03-22T02:31:26;100327.78;;;13.48;64.79
21290;BME280;10804;48.988;2.408;2023-03-22T02:34:37;100308.81;;;13.43;64.82
21290;BME280;10804;48.988;2.408;2023-03-22T02:37:45;100327.84;;;13.47;64.61
21290;BME280;10804;48.988;2.408;2023-03-22T02:40:40;100330.53;;;13.45;65.13
21290;BME280;10804;48.988;2.408;2023-03-22T02:43:33;100321.97;;;13.42;64.75
21290;BME280;10804;48.988;2.408;2023-03-22T02:46:25;100327.22;;;13.42;64.91
21290;BME280;10804;48.988;2.408;2023-03-22T02:49:19;100324.69;;;13.39;64.69
21290;BME280;10804;48.988;2.408;2023-03-22T02:52:11;100318.47;;;13.41;64.98
21290;BME280;10804;48.988;2.408;2023-03-22T02:55:05;100325.56;;;13.39;64.78
21290;BME280;10804;48.988;2.408;2023-03-22T02:57:59;100332.56;;;13.39;64.61
21290;BME280;10804;48.988;2.408;2023-03-22T03:00:50;100327.41;;;13.37;64.84
21290;BME280;10804;48.988;2.408;2023-03-22T03:03:38;100324.78;;;13.37;64.65
21290;BME280;10804;48.988;2.408;2023-03-22T03:06:27;100322.28;;;13.34;64.64
21290;BME280;10804;48.988;2.408;2023-03-22T03:09:16;100333.69;;;13.33;64.77
21290;BME280;10804;48.988;2.408;2023-03-22T03:12:08;100329.31;;;13.34;65.07
21290;BME280;10804;48.988;2.408;2023-03-22T03:14:56;100332.03;;;13.31;64.67
21290;BME280;10804;48.988;2.408;2023-03-22T03:17:52;100346.16;;;13.28;64.82
21290;BME280;10804;48.988;2.408;2023-03-22T03:20:48;100332.91;;;13.31;64.58
21290;BME280;10804;48.988;2.408;2023-03-22T03:23:45;100327.81;;;13.28;65.10
21290;BME280;10804;48.988;2.408;2023-03-22T03:26:38;100326.91;;;13.29;65.10
21290;BME280;10804;48.988;2.408;2023-03-22T03:29:37;100331.31;;;13.27;64.64
21290;BME280;10804;48.988;2.408;2023-03-22T03:32:28;100319.16;;;13.26;64.78
21290;BME280;10804;48.988;2.408;2023-03-22T03:35:20;100320.84;;;13.27;64.99
21290;BME280;10804;48.988;2.408;2023-03-22T03:38:09;100320.84;;;13.27;64.79
21290;BME280;10804;48.988;2.408;2023-03-22T03:41:00;100314.78;;;13.27;64.87
21290;BME280;10804;48.988;2.408;2023-03-22T03:43:47;100322.63;;;13.27;64.89
21290;BME280;10804;48.988;2.408;2023-03-22T03:46:33;100320.84;;;13.27;65.04
21290;BME280;10804;48.988;2.408;2023-03-22T03:49:21;100305.13;;;13.27;64.85
21290;BME280;10804;48.988;2.408;2023-03-22T03:52:08;100306.16;;;13.25;64.78
21290;BME280;10804;48.988;2.408;2023-03-22T03:54:54;100315.59;;;13.27;64.96
21290;BME280;10804;48.988;2.408;2023-03-22T03:57:46;100308.75;;;13.25;65.00
21290;BME280;10804;48.988;2.408;2023-03-22T04:00:32;100305.13;;;13.27;64.56
21290;BME280;10804;48.988;2.408;2023-03-22T04:03:42;100321.00;;;13.24;64.74
21290;BME280;10804;48.988;2.408;2023-03-22T04:06:51;100320.06;;;13.25;64.64
21290;BME280;10804;48.988;2.408;2023-03-22T04:09:41;100305.34;;;13.23;64.84
21290;BME280;10804;48.988;2.408;2023-03-22T04:12:47;100313.91;;;13.26;64.50
21290;BME280;10804;48.988;2.408;2023-03-22T04:15:35;100315.59;;;13.27;64.85
21290;BME280;10804;48.988;2.408;2023-03-22T04:18:25;100315.75;;;13.24;64.70
21290;BME280;10804;48.988;2.408;2023-03-22T04:21:14;100306.16;;;13.25;64.59
21290;BME280;10804;48.988;2.408;2023-03-22T04:24:27;100303.59;;;13.23;64.80
21290;BME280;10804;48.988;2.408;2023-03-22T04:27:14;100301.78;;;13.24;64.57
21290;BME280;10804;48.988;2.408;2023-03-22T04:30:21;100302.66;;;13.24;64.78
21290;BME280;10804;48.988;2.408;2023-03-22T04:33:20;100288.69;;;13.24;64.47
21290;BME280;10804;48.988;2.408;2023-03-22T04:36:25;100286.94;;;13.24;64.86
21290;BME280;10804;48.988;2.408;2023-03-22T04:39:31;100282.63;;;13.23;64.45
21290;BME280;10804;48.988;2.408;2023-03-22T04:42:42;100289.50;;;13.26;64.45
21290;BME280;10804;48.988;2.408;2023-03-22T04:45:44;100289.56;;;13.24;64.39
21290;BME280;10804;48.988;2.408;2023-03-22T04:48:35;100286.19;;;13.22;64.37
21290;BME280;10804;48.988;2.408;2023-03-22T04:51:21;100287.88;;;13.23;64.54
21290;BME280;10804;48.988;2.408;2023-03-22T04:54:26;100291.41;;;13.22;64.43
21290;BME280;10804;48.988;2.408;2023-03-22T04:57:14;100286.19;;;13.22;64.74
21290;BME280;10804;48.988;2.408;2023-03-22T05:00:05;100288.84;;;13.21;64.52
21290;BME280;10804;48.988;2.408;2023-03-22T05:02:55;100276.53;;;13.23;64.56
21290;BME280;10804;48.988;2.408;2023-03-22T05:05:50;100274.06;;;13.20;64.48
21290;BME280;10804;48.988;2.408;2023-03-22T05:08:37;100270.56;;;13.19;64.68
21290;BME280;10804;48.988;2.408;2023-03-22T05:11:23;100267.03;;;13.20;64.68
21290;BME280;10804;48.988;2.408;2023-03-22T05:14:33;100267.84;;;13.22;64.39
21290;BME280;10804;48.988;2.408;2023-03-22T05:17:20;100274.13;;;13.18;64.40
21290;BME280;10804;48.988;2.408;2023-03-22T05:20:09;100273.19;;;13.19;64.60
21290;BME280;10804;48.988;2.408;2023-03-22T05:22:58;100271.50;;;13.18;64.55
21290;BME280;10804;48.988;2.408;2023-03-22T05:25:48;100265.47;;;13.16;64.59
21290;BME280;10804;48.988;2.408;2023-03-22T05:28:35;100271.66;;;13.15;64.52
21290;BME280;10804;48.988;2.408;2023-03-22T05:31:32;100263.00;;;13.13;64.47
21290;BME280;10804;48.988;2.408;2023-03-22T05:34:20;100269.94;;;13.14;64.16
21290;BME280;10804;48.988;2.408;2023-03-22T05:37:06;100270.00;;;13.13;64.44
21290;BME280;10804;48.988;2.408;2023-03-22T05:40:06;100288.28;;;13.14;64.32
21290;BME280;10804;48.988;2.408;2023-03-22T05:42:56;100287.47;;;13.12;64.35
21290;BME280;10804;48.988;2.408;2023-03-22T05:45:44;100284.00;;;13.12;64.28
21290;BME280;10804;48.988;2.408;2023-03-22T05:48:58;100293.63;;;13.11;64.34
21290;BME280;10804;48.988;2.408;2023-03-22T05:51:44;100285.00;;;13.09;64.43
21290;BME280;10804;48.988;2.408;2023-03-22T05:54:33;100283.28;;;13.08;64.33
21290;BME280;10804;48.988;2.408;2023-03-22T05:57:18;100278.88;;;13.09;64.36
21290;BME280;10804;48.988;2.408;2023-03-22T06:00:06;100278.06;;;13.08;64.64
21290;BME280;10804;48.988;2.408;2023-03-22T06:03:06;100278.97;;;13.07;64.35
21290;BME280;10804;48.988;2.408;2023-03-22T06:06:01;100284.13;;;13.09;64.53
21290;BME280;10804;48.988;2.408;2023-03-22T06:08:57;100275.44;;;13.08;64.40
21290;BME280;10804;48.988;2.408;2023-03-22T06:11:43;100273.66;;;13.09;64.66
21290;BME280;10804;48.988;2.408;2023-03-22T06:14:29;100276.38;;;13.07;64.64
21290;BME280;10804;48.988;2.408;2023-03-22T06:17:25;100266.72;;;13.08;64.21
21290;BME280;10804;48.988;2.408;2023-03-22T06:20:12;100271.13;;;13.07;64.38
21290;BME280;10804;48.988;2.408;2023-03-22T06:23:06;100276.22;;;13.10;64.18
21290;BME280;10804;48.988;2.408;2023-03-22T06:25:53;100282.38;;;13.09;64.19
21290;BME280;10804;48.988;2.408;2023-03-22T06:28:40;100292.78;;;13.11;64.52
21290;BME280;10804;48.988;2.408;2023-03-22T06:31:27;100293.63;;;13.11;64.22
21290;BME280;10804;48.988;2.408;2023-03-22T06:34:16;100291.91;;;13.10;64.46
21290;BME280;10804;48.988;2.408;2023-03-22T06:37:04;100297.41;;;13.04;64.48
21290;BME280;10804;48.988;2.408;2023-03-22T06:39:58;100314.56;;;13.11;64.19
21290;BME280;10804;48.988;2.408;2023-03-22T06:42:44;100309.34;;;13.11;63.94
21290;BME280;10804;48.988;2.408;2023-03-22T06:45:34;100316.25;;;13.12;64.46
21290;BME280;10804;48.988;2.408;2023-03-22T06:48:21;100324.13;;;13.12;64.54
21290;BME280;10804;48.988;2.408;2023-03-22T06:51:21;100330.28;;;13.11;64.45
21290;BME280;10804;48.988;2.408;2023-03-22T06:54:07;100331.97;;;13.12;64.41
21290;BME280;10804;48.988;2.408;2023-03-22T06:56:54;100329.28;;;13.14;64.32
21290;BME280;10804;48.988;2.408;2023-03-22T06:59:42;100336.31;;;13.13;64.43
21290;BME280;10804;48.988;2.408;2023-03-22T07:02:28;100332.84;;;13.13;64.20
21290;BME280;10804;48.988;2.408;2023-03-22T07:05:34;100341.41;;;13.16;64.13
21290;BME280;10804;48.988;2.408;2023-03-22T07:08:20;100334.47;;;13.15;64.35
21290;BME280;10804;48.988;2.408;2023-03-22T07:11:07;100332.84;;;13.13;64.05
21290;BME280;10804;48.988;2.408;2023-03-22T07:13:55;100328.38;;;13.15;64.36
21290;BME280;10804;48.988;2.408;2023-03-22T07:16:42;100331.88;;;13.15;64.10
21290;BME280;10804;48.988;2.408;2023-03-22T07:19:28;100345.88;;;13.14;64.36
21290;BME280;10804;48.988;2.408;2023-03-22T07:22:16;100342.28;;;13.17;63.94
21290;BME280;10804;48.988;2.408;2023-03-22T07:25:05;100339.72;;;13.15;64.24
21290;BME280;10804;48.988;2.408;2023-03-22T07:27:52;100337.09;;;13.15;64.26
21290;BME280;10804;48.988;2.408;2023-03-22T07:30:43;100330.88;;;13.18;64.10
21290;BME280;10804;48.988;2.408;2023-03-22T07:33:30;100338.03;;;13.14;64.03
21290;BME280;10804;48.988;2.408;2023-03-22T07:36:16;100336.13;;;13.18;64.25
21290;BME280;10804;48.988;2.408;2023-03-22T07:39:07;100334.34;;;13.18;63.89
21290;BME280;10804;48.988;2.408;2023-03-22T07:41:58;100333.56;;;13.16;64.13
21290;BME280;10804;48.988;2.408;2023-03-22T07:44:44;100345.72;;;13.17;64.11
21290;BME280;10804;48.988;2.408;2023-03-22T07:47:37;100335.31;;;13.16;64.13
21290;BME280;10804;48.988;2.408;2023-03-22T07:50:46;100342.34;;;13.15;64.35
21290;BME280;10804;48.988;2.408;2023-03-22T07:53:34;100341.34;;;13.18;64.07
21290;BME280;10804;48.988;2.408;2023-03-22T07:56:21;100342.19;;;13.18;64.00
21290;BME280;10804;48.988;2.408;2023-03-22T07:59:06;100343.88;;;13.19;63.89
21290;BME280;10804;48.988;2.408;2023-03-22T08:01:54;100345.59;;;13.20;63.90
21290;BME280;10804;48.988;2.408;2023-03-22T08:04:46;100349.13;;;13.19;64.00
21290;BME280;10804;48.988;2.408;2023-03-22T08:07:54;100339.47;;;13.21;64.04
21290;BME280;10804;48.988;2.408;2023-03-22T08:10:40;100334.22;;;13.21;63.84
21290;BME280;10804;48.988;2.408;2023-03-22T08:13:30;100346.31;;;13.24;63.88
21290;BME280;10804;48.988;2.408;2023-03-22T08:16:16;100345.53;;;13.22;65.94
21290;BME280;10804;48.988;2.408;2023-03-22T08:19:03;100348.28;;;13.19;66.23
21290;BME280;10804;48.988;2.408;2023-03-22T08:21:54;100356.06;;;13.20;66.11
21290;BME280;10804;48.988;2.408;2023-03-22T08:25:03;100353.34;;;13.23;65.80
21290;BME280;10804;48.988;2.408;2023-03-22T08:27:54;100348.09;;;13.23;65.54
21290;BME280;10804;48.988;2.408;2023-03-22T08:30:45;100350.66;;;13.25;65.39
21290;BME280;10804;48.988;2.408;2023-03-22T08:33:32;100362.75;;;13.27;65.19
21290;BME280;10804;48.988;2.408;2023-03-22T08:36:19;100348.75;;;13.28;65.37
21290;BME280;10804;48.988;2.408;2023-03-22T08:39:16;100349.53;;;13.30;65.07
21290;BME280;10804;48.988;2.408;2023-03-22T08:42:09;100346.91;;;13.30;65.22
21290;BME280;10804;48.988;2.408;2023-03-22T08:44:54;100360.78;;;13.32;65.52
21290;BME280;10804;48.988;2.408;2023-03-22T08:47:43;100358.13;;;13.34;65.33
21290;BME280;10804;48.988;2.408;2023-03-22T08:50:30;100357.19;;;13.35;65.11
21290;BME280;10804;48.988;2.408;2023-03-22T08:53:36;100348.41;;;13.36;65.26
21290;BME280;10804;48.988;2.408;2023-03-22T08:56:45;100352.69;;;13.38;65.21
21290;BME280;10804;48.988;2.408;2023-03-22T09:00:01;100353.50;;;13.39;65.06
21290;BME280;10804;48.988;2.408;2023-03-22T09:03:03;100354.38;;;13.39;65.06
21290;BME280;10804;48.988;2.408;2023-03-22T09:05:48;100349.09;;;13.41;64.91
21290;BME280;10804;48.988;2.408;2023-03-22T09:08:34;100353.47;;;13.40;64.82
21290;BME280;10804;48.988;2.408;2023-03-22T09:11:26;100350.78;;;13.42;64.88
21290;BME280;10804;48.988;2.408;2023-03-22T09:14:14;100341.13;;;13.42;64.54
21290;BME280;10804;48.988;2.408;2023-03-22T09:17:00;100332.41;;;13.43;64.59
21290;BME280;10804;48.988;2.408;2023-03-22T09:19:46;100336.72;;;13.44;64.50
21290;BME280;10804;48.988;2.408;2023-03-22T09:22:32;100334.91;;;13.45;64.81
21290;BME280;10804;48.988;2.408;2023-03-22T09:25:19;100331.47;;;13.44;64.59
21290;BME280;10804;48.988;2.408;2023-03-22T09:28:07;100346.25;;;13.45;64.37
21290;BME280;10804;48.988;2.408;2023-03-22T09:30:58;100346.25;;;13.45;64.31
21290;BME280;10804;48.988;2.408;2023-03-22T09:33:44;100343.66;;;13.45;64.65
21290;BME280;10804;48.988;2.408;2023-03-22T09:36:32;100334.09;;;13.44;64.61
21290;BME280;10804;48.988;2.408;2023-03-22T09:39:18;100333.16;;;13.45;64.65
21290;BME280;10804;48.988;2.408;2023-03-22T09:42:19;100332.31;;;13.45;64.64
21290;BME280;10804;48.988;2.408;2023-03-22T09:45:10;100331.38;;;13.46;64.15
21290;BME280;10804;48.988;2.408;2023-03-22T09:47:59;100327.16;;;13.43;64.30
21290;BME280;10804;48.988;2.408;2023-03-22T09:50:51;100334.00;;;13.46;64.57
21290;BME280;10804;48.988;2.408;2023-03-22T09:53:37;100321.81;;;13.45;64.41
21290;BME280;10804;48.988;2.408;2023-03-22T09:56:24;100318.38;;;13.44;64.50
21290;BME280;10804;48.988;2.408;2023-03-22T09:59:14;100317.34;;;13.47;64.41
21290;BME280;10804;48.988;2.408;2023-03-22T10:02:14;100297.28;;;13.47;64.38
21290;BME280;10804;48.988;2.408;2023-03-22T10:05:13;100296.41;;;13.47;64.17
21290;BME280;10804;48.988;2.408;2023-03-22T10:08:13;100292.94;;;13.46;64.31
21290;BME280;10804;48.988;2.408;2023-03-22T10:11:06;100298.13;;;13.48;63.97
21290;BME280;10804;48.988;2.408;2023-03-22T10:14:01;100304.22;;;13.48;64.34
21290;BME280;10804;48.988;2.408;2023-03-22T10:16:52;100299.84;;;13.49;64.13
21290;BME280;10804;48.988;2.408;2023-03-22T10:19:48;100300.66;;;13.49;64.12
21290;BME280;10804;48.988;2.408;2023-03-22T10:22:41;100293.66;;;13.50;64.13
21290;BME280;10804;48.988;2.408;2023-03-22T10:25:32;100288.50;;;13.48;64.24
21290;BME280;10804;48.988;2.408;2023-03-22T10:28:22;100288.38;;;13.51;64.29
21290;BME280;10804;48.988;2.408;2023-03-22T10:30:53;100277.19;;;13.48;64.04
21290;BME280;10804;48.988;2.408;2023-03-22T10:33:29;100281.41;;;13.50;64.03
21290;BME280;10804;48.988;2.408;2023-03-22T10:35:58;100288.22;;;13.54;64.21
21290;BME280;10804;48.988;2.408;2023-03-22T10:38:29;100286.53;;;13.53;63.89
21290;BME280;10804;48.988;2.408;2023-03-22T10:40:58;100283.03;;;13.53;64.21
21290;BME280;10804;48.988;2.408;2023-03-22T10:43:30;100289.91;;;13.55;64.09
21290;BME280;10804;48.988;2.408;2023-03-22T10:46:00;100283.75;;;13.56;64.21
21290;BME280;10804;48.988;2.408;2023-03-22T10:48:29;100288.06;;;13.57;64.19
21290;BME280;10804;48.988;2.408;2023-03-22T10:50:59;100285.44;;;13.57;63.95
21290;BME280;10804;48.988;2.408;2023-03-22T10:53:35;100281.03;;;13.59;63.99
21290;BME280;10804;48.988;2.408;2023-03-22T10:56:04;100282.72;;;13.60;64.01
21290;BME280;10804;48.988;2.408;2023-03-22T10:58:32;100292.31;;;13.60;64.19
21290;BME280;10804;48.988;2.408;2023-03-22T11:01:04;100274.91;;;13.59;64.15
21290;BME280;10804;48.988;2.408;2023-03-22T11:03:37;100277.38;;;13.62;63.98
21290;BME280;10804;48.988;2.408;2023-03-22T11:06:07;100264.38;;;13.60;64.06
21290;BME280;10804;48.988;2.408;2023-03-22T11:08:45;100268.63;;;13.63;64.07
21290;BME280;10804;48.988;2.408;2023-03-22T11:11:19;100264.22;;;13.63;63.97
21290;BME280;10804;48.988;2.408;2023-03-22T11:13:54;100267.75;;;13.62;63.88
21290;BME280;10804;48.988;2.408;2023-03-22T11:16:24;100271.09;;;13.66;64.10
21290;BME280;10804;48.988;2.408;2023-03-22T11:18:53;100269.41;;;13.65;63.92
21290;BME280;10804;48.988;2.408;2023-03-22T11:21:23;100275.34;;;13.68;63.74
21290;BME280;10804;48.988;2.408;2023-03-22T11:23:57;100273.50;;;13.70;63.74
21290;BME280;10804;48.988;2.408;2023-03-22T11:26:29;100264.72;;;13.71;64.06
21290;BME280;10804;48.988;2.408;2023-03-22T11:29:21;100261.19;;;13.72;63.80
21290;BME280;10804;48.988;2.408;2023-03-22T11:31:52;100262.03;;;13.73;63.64
21290;BME280;10804;48.988;2.408;2023-03-22T11:34:24;100262.75;;;13.76;63.77
21290;BME280;10804;48.988;2.408;2023-03-22T11:36:53;100248.72;;;13.77;63.99
21290;BME280;10804;48.988;2.408;2023-03-22T11:39:26;100252.13;;;13.79;63.82
21290;BME280;10804;48.988;2.408;2023-03-22T11:41:56;100249.50;;;13.79;63.65
21290;BME280;10804;48.988;2.408;2023-03-22T11:44:27;100241.50;;;13.82;63.74
21290;BME280;10804;48.988;2.408;2023-03-22T11:47:00;100250.25;;;13.81;63.59
21290;BME280;10804;48.988;2.408;2023-03-22T11:49:37;100245.81;;;13.83;63.43
21290;BME280;10804;48.988;2.408;2023-03-22T11:52:07;100251.84;;;13.85;63.69
21290;BME280;10804;48.988;2.408;2023-03-22T11:54:38;100251.69;;;13.88;63.79
21290;BME280;10804;48.988;2.408;2023-03-22T11:57:12;100255.09;;;13.90;63.57
21290;BME280;10804;48.988;2.408;2023-03-22T11:59:47;100250.69;;;13.91;63.29
21290;BME280;10804;48.988;2.408;2023-03-22T12:02:21;100261.94;;;13.93;63.41
21290;BME280;10804;48.988;2.408;2023-03-22T12:04:52;100247.84;;;13.95;63.46
21290;BME280;10804;48.988;2.408;2023-03-22T12:07:23;100239.94;;;13.97;63.65
21290;BME280;10804;48.988;2.408;2023-03-22T12:09:56;100243.41;;;13.97;63.40
21290;BME280;10804;48.988;2.408;2023-03-22T12:12:27;100248.56;;;13.99;63.30
21290;BME280;10804;48.988;2.408;2023-03-22T12:14:59;100246.75;;;14.01;63.38
21290;BME280;10804;48.988;2.408;2023-03-22T12:17:33;100237.09;;;14.01;63.58
21290;BME280;10804;48.988;2.408;2023-03-22T12:20:06;100234.41;;;14.03;63.56
21290;BME280;10804;48.988;2.408;2023-03-22T12:22:41;100230.00;;;14.03;63.38
21290;BME280;10804;48.988;2.408;2023-03-22T12:25:14;100235.09;;;14.06;63.34
21290;BME280;10804;48.988;2.408;2023-03-22T12:27:44;100231.56;;;14.07;63.62
21290;BME280;10804;48.988;2.408;2023-03-22T12:30:16;100225.38;;;14.08;63.59
21290;BME280;10804;48.988;2.408;2023-03-22T12:32:46;100218.28;;;14.10;63.62
21290;BME280;10804;48.988;2.408;2023-03-22T12:35:19;100206.03;;;14.11;63.71
21290;BME280;10804;48.988;2.408;2023-03-22T12:37:53;100197.31;;;14.10;63.50
21290;BME280;10804;48.988;2.408;2023-03-22T12:40:25;100189.31;;;14.13;63.63
21290;BME280;10804;48.988;2.408;2023-03-22T12:43:01;100193.63;;;14.14;63.66
21290;BME280;10804;48.988;2.408;2023-03-22T12:45:37;100191.84;;;14.15;63.48
21290;BME280;10804;48.988;2.408;2023-03-22T12:48:11;100189.16;;;14.16;63.59
21290;BME280;10804;48.988;2.408;2023-03-22T12:50:44;100186.53;;;14.16;63.64
21290;BME280;10804;48.988;2.408;2023-03-22T12:53:15;100190.84;;;14.17;63.66
21290;BME280;10804;48.988;2.408;2023-03-22T12:55:45;100187.34;;;14.18;63.76
21290;BME280;10804;48.988;2.408;2023-03-22T12:58:17;100187.25;;;14.20;63.66
21290;BME280;10804;48.988;2.408;2023-03-22T13:00:52;100185.50;;;14.20;63.61
21290;BME280;10804;48.988;2.408;2023-03-22T13:03:26;100179.34;;;14.21;63.44
21290;BME280;10804;48.988;2.408;2023-03-22T13:06:03;100178.41;;;14.22;63.53
21290;BME280;10804;48.988;2.408;2023-03-22T13:11:39;100181.78;;;14.24;63.40
21290;BME280;10804;48.988;2.408;2023-03-22T13:14:06;100180.09;;;14.23;63.48
21290;BME280;10804;48.988;2.408;2023-03-22T13:16:49;100168.63;;;14.26;63.76
21290;BME280;10804;48.988;2.408;2023-03-22T13:19:26;100169.44;;;14.26;63.48
21290;BME280;10804;48.988;2.408;2023-03-22T13:22:15;100165.06;;;14.27;63.63
21290;BME280;10804;48.988;2.408;2023-03-22T13:24:57;100161.50;;;14.28;63.45
21290;BME280;10804;48.988;2.408;2023-03-22T13:27:34;100169.31;;;14.29;63.58
21290;BME280;10804;48.988;2.408;2023-03-22T13:30:04;100153.56;;;14.29;63.54
21290;BME280;10804;48.988;2.408;2023-03-22T13:32:34;100154.34;;;14.31;63.59
21290;BME280;10804;48.988;2.408;2023-03-22T13:35:02;100149.97;;;14.32;63.40
21290;BME280;10804;48.988;2.408;2023-03-22T13:37:32;100149.97;;;14.32;63.36
21290;BME280;10804;48.988;2.408;2023-03-22T13:40:01;100153.41;;;14.32;63.60
21290;BME280;10804;48.988;2.408;2023-03-22T13:42:39;100155.09;;;14.33;63.60
21290;BME280;10804;48.988;2.408;2023-03-22T13:45:27;100155.09;;;14.33;63.24
21290;BME280;10804;48.988;2.408;2023-03-22T13:48:03;100145.41;;;14.35;63.33
21290;BME280;10804;48.988;2.408;2023-03-22T13:50:33;100136.66;;;14.35;63.61
21290;BME280;10804;48.988;2.408;2023-03-22T13:53:05;100124.41;;;14.35;63.41
21290;BME280;10804;48.988;2.408;2023-03-22T13:55:37;100129.66;;;14.35;63.48
21290;BME280;10804;48.988;2.408;2023-03-22T13:58:10;100127.81;;;14.37;63.33
21290;BME280;10804;48.988;2.408;2023-03-22T14:00:48;100123.38;;;14.38;63.38
21290;BME280;10804;48.988;2.408;2023-03-22T14:03:27;100117.25;;;14.39;63.29
21290;BME280;10804;48.988;2.408;2023-03-22T14:06:08;100116.31;;;14.40;63.60
21290;BME280;10804;48.988;2.408;2023-03-22T14:08:39;100105.72;;;14.41;63.54
21290;BME280;10804;48.988;2.408;2023-03-22T14:11:18;100106.66;;;14.40;63.53
21290;BME280;10804;48.988;2.408;2023-03-22T14:13:51;100107.41;;;14.42;63.63
21290;BME280;10804;48.988;2.408;2023-03-22T14:16:32;100109.97;;;14.44;63.58
21290;BME280;10804;48.988;2.408;2023-03-22T14:19:02;100101.16;;;14.45;63.60
21290;BME280;10804;48.988;2.408;2023-03-22T14:21:33;100098.66;;;14.43;63.30
21290;BME280;10804;48.988;2.408;2023-03-22T14:24:04;100093.22;;;14.46;63.29
21290;BME280;10804;48.988;2.408;2023-03-22T14:26:35;100099.22;;;14.48;63.50
21290;BME280;10804;48.988;2.408;2023-03-22T14:29:13;100106.19;;;14.49;63.26
21290;BME280;10804;48.988;2.408;2023-03-22T14:31:42;100100.84;;;14.51;63.63
21290;BME280;10804;48.988;2.408;2023-03-22T14:34:13;100094.69;;;14.52;63.48